sensor_id;sensor_type;location;lat;lon;timestamp;P1;durP1;ratioP1;P2;durP2;ratioP2
53261;SDS011;39658;51.090;-1.786;2023-08-20T00:01:29;14.50;;;2.70;;
53261;SDS011;39658;51.090;-1.786;2023-08-20T00:03:56;18.77;;;2.70;;
53261;SDS011;39658;51.090;-1.786;2023-08-20T00:06:25;16.88;;;2.88;;
53261;SDS011;39658;51.090;-1.786;2023-08-20T00:08:52;13.55;;;2.63;;
53261;SDS011;39658;51.090;-1.786;2023-08-20T00:11:19;9.90;;;1.75;;
53261;SDS011;39658;51.090;-1.786;2023-08-20T00:13:46;15.65;;;2.78;;
53261;SDS011;39658;51.090;-1.786;2023-08-20T00:16:13;13.43;;;3.42;;
53261;SDS011;39658;51.090;-1.786;2023-08-20T00:18:41;9.60;;;2.63;;
53261;SDS011;39658;51.090;-1.786;2023-08-20T00:21:08;6.88;;;2.08;;
53261;SDS011;39658;51.090;-1.786;2023-08-20T00:23:37;19.17;;;3.10;;
53261;SDS011;39658;51.090;-1.786;2023-08-20T00:26:04;14.98;;;3.30;;
53261;SDS011;39658;51.090;-1.786;2023-08-20T00:28:31;17.52;;;3.40;;
53261;SDS011;39658;51.090;-1.786;2023-08-20T00:33:28;12.45;;;3.10;;
53261;SDS011;39658;51.090;-1.786;2023-08-20T00:35:55;10.43;;;2.35;;
53261;SDS011;39658;51.090;-1.786;2023-08-20T00:38:22;10.88;;;2.83;;
53261;SDS011;39658;51.090;-1.786;2023-08-20T00:40:50;21.20;;;2.92;;
53261;SDS011;39658;51.090;-1.786;2023-08-20T00:43:17;13.70;;;2.92;;
53261;SDS011;39658;51.090;-1.786;2023-08-20T00:45:44;7.20;;;2.22;;
53261;SDS011;39658;51.090;-1.786;2023-08-20T00:48:11;11.45;;;3.13;;
53261;SDS011;39658;51.090;-1.786;2023-08-20T00:50:38;9.90;;;2.22;;
53261;SDS011;39658;51.090;-1.786;2023-08-20T00:53:05;9.68;;;3.17;;
53261;SDS011;39658;51.090;-1.786;2023-08-20T00:55:34;9.80;;;2.72;;
53261;SDS011;39658;51.090;-1.786;2023-08-20T00:58:03;12.93;;;3.20;;
53261;SDS011;39658;51.090;-1.786;2023-08-20T01:00:31;14.80;;;3.38;;
53261;SDS011;39658;51.090;-1.786;2023-08-20T01:02:58;15.13;;;2.92;;
53261;SDS011;39658;51.090;-1.786;2023-08-20T01:05:24;18.80;;;3.33;;
53261;SDS011;39658;51.090;-1.786;2023-08-20T01:07:56;16.20;;;2.95;;
53261;SDS011;39658;51.090;-1.786;2023-08-20T01:10:31;18.98;;;2.92;;
53261;SDS011;39658;51.090;-1.786;2023-08-20T01:13:06;10.30;;;2.72;;
53261;SDS011;39658;51.090;-1.786;2023-08-20T01:15:34;11.93;;;3.20;;
53261;SDS011;39658;51.090;-1.786;2023-08-20T01:18:01;19.45;;;3.17;;
53261;SDS011;39658;51.090;-1.786;2023-08-20T01:20:29;14.20;;;2.83;;
53261;SDS011;39658;51.090;-1.786;2023-08-20T01:23:02;16.92;;;3.38;;
53261;SDS011;39658;51.090;-1.786;2023-08-20T01:28:25;16.80;;;2.30;;
53261;SDS011;39658;51.090;-1.786;2023-08-20T01:30:53;9.63;;;3.00;;
53261;SDS011;39658;51.090;-1.786;2023-08-20T01:33:22;27.15;;;3.85;;
53261;SDS011;39658;51.090;-1.786;2023-08-20T01:35:50;13.80;;;3.53;;
53261;SDS011;39658;51.090;-1.786;2023-08-20T01:38:17;10.68;;;4.05;;
53261;SDS011;39658;51.090;-1.786;2023-08-20T01:40:44;11.32;;;3.33;;
53261;SDS011;39658;51.090;-1.786;2023-08-20T01:43:11;17.33;;;3.08;;
53261;SDS011;39658;51.090;-1.786;2023-08-20T01:45:39;27.55;;;4.20;;
53261;SDS011;39658;51.090;-1.786;2023-08-20T01:48:06;18.77;;;3.70;;
53261;SDS011;39658;51.090;-1.786;2023-08-20T01:50:34;16.95;;;3.42;;
53261;SDS011;39658;51.090;-1.786;2023-08-20T01:53:01;19.63;;;3.80;;
53261;SDS011;39658;51.090;-1.786;2023-08-20T01:55:29;15.40;;;3.95;;
53261;SDS011;39658;51.090;-1.786;2023-08-20T01:57:56;20.25;;;3.75;;
53261;SDS011;39658;51.090;-1.786;2023-08-20T02:00:23;25.45;;;3.67;;
53261;SDS011;39658;51.090;-1.786;2023-08-20T02:02:51;19.77;;;3.70;;
53261;SDS011;39658;51.090;-1.786;2023-08-20T02:05:18;10.40;;;3.22;;
53261;SDS011;39658;51.090;-1.786;2023-08-20T02:07:45;23.55;;;3.60;;
53261;SDS011;39658;51.090;-1.786;2023-08-20T02:10:12;14.75;;;3.70;;
53261;SDS011;39658;51.090;-1.786;2023-08-20T02:12:39;14.60;;;3.55;;
53261;SDS011;39658;51.090;-1.786;2023-08-20T02:15:07;19.17;;;3.40;;
53261;SDS011;39658;51.090;-1.786;2023-08-20T02:17:36;20.08;;;4.05;;
53261;SDS011;39658;51.090;-1.786;2023-08-20T02:20:04;22.52;;;3.97;;
53261;SDS011;39658;51.090;-1.786;2023-08-20T02:22:34;12.95;;;3.63;;
53261;SDS011;39658;51.090;-1.786;2023-08-20T02:25:01;23.38;;;4.25;;
53261;SDS011;39658;51.090;-1.786;2023-08-20T02:27:28;14.10;;;4.07;;
53261;SDS011;39658;51.090;-1.786;2023-08-20T02:29:55;18.63;;;4.22;;
53261;SDS011;39658;51.090;-1.786;2023-08-20T02:32:22;19.25;;;4.43;;
53261;SDS011;39658;51.090;-1.786;2023-08-20T02:34:49;13.23;;;3.25;;
53261;SDS011;39658;51.090;-1.786;2023-08-20T02:37:18;13.38;;;4.07;;
53261;SDS011;39658;51.090;-1.786;2023-08-20T02:39:45;25.63;;;4.13;;
53261;SDS011;39658;51.090;-1.786;2023-08-20T02:42:12;20.80;;;3.58;;
53261;SDS011;39658;51.090;-1.786;2023-08-20T02:44:38;21.77;;;3.90;;
53261;SDS011;39658;51.090;-1.786;2023-08-20T02:47:06;18.30;;;3.25;;
53261;SDS011;39658;51.090;-1.786;2023-08-20T02:49:32;10.68;;;3.13;;
53261;SDS011;39658;51.090;-1.786;2023-08-20T02:51:59;10.77;;;3.83;;
53261;SDS011;39658;51.090;-1.786;2023-08-20T02:54:29;13.77;;;3.55;;
53261;SDS011;39658;51.090;-1.786;2023-08-20T02:56:57;21.70;;;3.30;;
53261;SDS011;39658;51.090;-1.786;2023-08-20T02:59:24;25.88;;;4.13;;
53261;SDS011;39658;51.090;-1.786;2023-08-20T03:01:51;20.85;;;3.65;;
53261;SDS011;39658;51.090;-1.786;2023-08-20T03:04:17;13.88;;;2.58;;
53261;SDS011;39658;51.090;-1.786;2023-08-20T03:06:44;11.45;;;2.65;;
53261;SDS011;39658;51.090;-1.786;2023-08-20T03:09:11;15.13;;;3.28;;
53261;SDS011;39658;51.090;-1.786;2023-08-20T03:11:39;22.23;;;3.55;;
53261;SDS011;39658;51.090;-1.786;2023-08-20T03:14:06;11.10;;;2.65;;
53261;SDS011;39658;51.090;-1.786;2023-08-20T03:16:33;23.23;;;3.65;;
53261;SDS011;39658;51.090;-1.786;2023-08-20T03:19:00;11.68;;;3.30;;
53261;SDS011;39658;51.090;-1.786;2023-08-20T03:21:27;17.98;;;3.13;;
53261;SDS011;39658;51.090;-1.786;2023-08-20T03:23:54;9.82;;;2.88;;
53261;SDS011;39658;51.090;-1.786;2023-08-20T03:26:21;14.90;;;3.17;;
53261;SDS011;39658;51.090;-1.786;2023-08-20T03:28:49;10.93;;;2.78;;
53261;SDS011;39658;51.090;-1.786;2023-08-20T03:31:16;12.70;;;3.53;;
53261;SDS011;39658;51.090;-1.786;2023-08-20T03:33:43;17.90;;;3.58;;
53261;SDS011;39658;51.090;-1.786;2023-08-20T03:36:10;17.95;;;3.20;;
53261;SDS011;39658;51.090;-1.786;2023-08-20T03:38:37;12.57;;;3.10;;
53261;SDS011;39658;51.090;-1.786;2023-08-20T03:41:03;18.90;;;3.55;;
53261;SDS011;39658;51.090;-1.786;2023-08-20T03:43:30;11.77;;;2.90;;
53261;SDS011;39658;51.090;-1.786;2023-08-20T03:45:59;13.23;;;3.33;;
53261;SDS011;39658;51.090;-1.786;2023-08-20T03:48:26;12.68;;;2.95;;
53261;SDS011;39658;51.090;-1.786;2023-08-20T03:50:52;14.23;;;3.35;;
53261;SDS011;39658;51.090;-1.786;2023-08-20T03:53:20;12.90;;;3.75;;
53261;SDS011;39658;51.090;-1.786;2023-08-20T03:55:47;14.00;;;2.80;;
53261;SDS011;39658;51.090;-1.786;2023-08-20T03:58:15;9.73;;;3.47;;
53261;SDS011;39658;51.090;-1.786;2023-08-20T04:00:42;16.23;;;4.32;;
53261;SDS011;39658;51.090;-1.786;2023-08-20T04:03:10;12.43;;;3.63;;
53261;SDS011;39658;51.090;-1.786;2023-08-20T04:05:38;13.50;;;3.78;;
53261;SDS011;39658;51.090;-1.786;2023-08-20T04:08:05;11.00;;;2.83;;
53261;SDS011;39658;51.090;-1.786;2023-08-20T04:10:33;20.75;;;3.47;;
53261;SDS011;39658;51.090;-1.786;2023-08-20T04:12:59;21.20;;;3.35;;
53261;SDS011;39658;51.090;-1.786;2023-08-20T04:15:26;11.40;;;2.75;;
53261;SDS011;39658;51.090;-1.786;2023-08-20T04:17:53;7.38;;;2.67;;
53261;SDS011;39658;51.090;-1.786;2023-08-20T04:20:21;13.60;;;2.83;;
53261;SDS011;39658;51.090;-1.786;2023-08-20T04:22:48;14.40;;;3.40;;
53261;SDS011;39658;51.090;-1.786;2023-08-20T04:25:15;11.02;;;3.50;;
53261;SDS011;39658;51.090;-1.786;2023-08-20T04:27:42;12.40;;;3.08;;
53261;SDS011;39658;51.090;-1.786;2023-08-20T04:30:09;15.48;;;4.22;;
53261;SDS011;39658;51.090;-1.786;2023-08-20T04:32:37;12.43;;;3.35;;
53261;SDS011;39658;51.090;-1.786;2023-08-20T04:35:04;12.40;;;3.03;;
53261;SDS011;39658;51.090;-1.786;2023-08-20T04:37:33;10.98;;;3.28;;
53261;SDS011;39658;51.090;-1.786;2023-08-20T04:40:00;13.93;;;2.92;;
53261;SDS011;39658;51.090;-1.786;2023-08-20T04:42:29;12.40;;;2.90;;
53261;SDS011;39658;51.090;-1.786;2023-08-20T04:44:56;7.68;;;2.55;;
53261;SDS011;39658;51.090;-1.786;2023-08-20T04:47:23;13.38;;;3.42;;
53261;SDS011;39658;51.090;-1.786;2023-08-20T04:49:50;15.77;;;3.30;;
53261;SDS011;39658;51.090;-1.786;2023-08-20T04:52:17;13.93;;;3.15;;
53261;SDS011;39658;51.090;-1.786;2023-08-20T04:54:45;17.20;;;3.42;;
53261;SDS011;39658;51.090;-1.786;2023-08-20T04:57:12;13.95;;;3.42;;
53261;SDS011;39658;51.090;-1.786;2023-08-20T04:59:39;12.13;;;3.42;;
53261;SDS011;39658;51.090;-1.786;2023-08-20T05:02:08;16.98;;;3.92;;
53261;SDS011;39658;51.090;-1.786;2023-08-20T05:04:34;14.13;;;3.92;;
53261;SDS011;39658;51.090;-1.786;2023-08-20T05:07:01;15.45;;;3.42;;
53261;SDS011;39658;51.090;-1.786;2023-08-20T05:09:28;16.88;;;2.97;;
53261;SDS011;39658;51.090;-1.786;2023-08-20T05:11:56;15.55;;;3.92;;
53261;SDS011;39658;51.090;-1.786;2023-08-20T05:14:23;15.43;;;3.42;;
53261;SDS011;39658;51.090;-1.786;2023-08-20T05:16:50;14.18;;;2.80;;
53261;SDS011;39658;51.090;-1.786;2023-08-20T05:19:17;14.50;;;3.15;;
53261;SDS011;39658;51.090;-1.786;2023-08-20T05:21:43;14.60;;;4.15;;
53261;SDS011;39658;51.090;-1.786;2023-08-20T05:24:10;14.20;;;3.00;;
53261;SDS011;39658;51.090;-1.786;2023-08-20T05:26:37;13.07;;;3.67;;
53261;SDS011;39658;51.090;-1.786;2023-08-20T05:29:05;11.98;;;2.55;;
53261;SDS011;39658;51.090;-1.786;2023-08-20T05:31:33;19.50;;;3.47;;
53261;SDS011;39658;51.090;-1.786;2023-08-20T05:34:00;20.85;;;3.45;;
53261;SDS011;39658;51.090;-1.786;2023-08-20T05:36:26;12.60;;;3.33;;
53261;SDS011;39658;51.090;-1.786;2023-08-20T05:38:53;10.18;;;3.10;;
53261;SDS011;39658;51.090;-1.786;2023-08-20T05:41:20;8.32;;;3.28;;
53261;SDS011;39658;51.090;-1.786;2023-08-20T05:43:47;10.18;;;2.90;;
53261;SDS011;39658;51.090;-1.786;2023-08-20T05:46:15;20.17;;;3.38;;
53261;SDS011;39658;51.090;-1.786;2023-08-20T05:48:42;7.65;;;2.85;;
53261;SDS011;39658;51.090;-1.786;2023-08-20T05:51:09;15.07;;;3.50;;
53261;SDS011;39658;51.090;-1.786;2023-08-20T05:53:35;18.73;;;3.50;;
53261;SDS011;39658;51.090;-1.786;2023-08-20T05:56:02;10.55;;;4.00;;
53261;SDS011;39658;51.090;-1.786;2023-08-20T05:58:29;16.52;;;3.13;;
53261;SDS011;39658;51.090;-1.786;2023-08-20T06:00:56;10.75;;;2.88;;
53261;SDS011;39658;51.090;-1.786;2023-08-20T06:03:24;15.00;;;2.83;;
53261;SDS011;39658;51.090;-1.786;2023-08-20T06:05:51;19.48;;;3.05;;
53261;SDS011;39658;51.090;-1.786;2023-08-20T06:08:18;10.88;;;3.53;;
53261;SDS011;39658;51.090;-1.786;2023-08-20T06:10:44;12.52;;;2.92;;
53261;SDS011;39658;51.090;-1.786;2023-08-20T06:13:11;10.98;;;3.22;;
53261;SDS011;39658;51.090;-1.786;2023-08-20T06:15:38;18.45;;;3.15;;
53261;SDS011;39658;51.090;-1.786;2023-08-20T06:18:05;11.93;;;3.67;;
53261;SDS011;39658;51.090;-1.786;2023-08-20T06:20:33;11.00;;;3.03;;
53261;SDS011;39658;51.090;-1.786;2023-08-20T06:23:00;12.65;;;2.88;;
53261;SDS011;39658;51.090;-1.786;2023-08-20T06:25:27;13.88;;;2.58;;
53261;SDS011;39658;51.090;-1.786;2023-08-20T06:27:53;14.82;;;3.50;;
53261;SDS011;39658;51.090;-1.786;2023-08-20T06:30:20;13.85;;;2.95;;
53261;SDS011;39658;51.090;-1.786;2023-08-20T06:32:47;12.07;;;2.45;;
53261;SDS011;39658;51.090;-1.786;2023-08-20T06:35:14;11.35;;;2.10;;
53261;SDS011;39658;51.090;-1.786;2023-08-20T06:37:42;15.38;;;2.83;;
53261;SDS011;39658;51.090;-1.786;2023-08-20T06:40:09;8.48;;;3.15;;
53261;SDS011;39658;51.090;-1.786;2023-08-20T06:42:38;8.05;;;2.50;;
53261;SDS011;39658;51.090;-1.786;2023-08-20T06:45:06;12.57;;;3.53;;
53261;SDS011;39658;51.090;-1.786;2023-08-20T06:47:34;8.00;;;2.15;;
53261;SDS011;39658;51.090;-1.786;2023-08-20T06:50:01;9.52;;;2.30;;
53261;SDS011;39658;51.090;-1.786;2023-08-20T06:52:28;9.70;;;3.20;;
53261;SDS011;39658;51.090;-1.786;2023-08-20T06:54:56;7.18;;;2.05;;
53261;SDS011;39658;51.090;-1.786;2023-08-20T06:57:23;8.48;;;2.40;;
53261;SDS011;39658;51.090;-1.786;2023-08-20T06:59:50;6.85;;;2.20;;
53261;SDS011;39658;51.090;-1.786;2023-08-20T07:02:17;8.48;;;2.47;;
53261;SDS011;39658;51.090;-1.786;2023-08-20T07:04:44;9.40;;;1.90;;
53261;SDS011;39658;51.090;-1.786;2023-08-20T07:07:11;9.48;;;2.20;;
53261;SDS011;39658;51.090;-1.786;2023-08-20T07:09:39;9.07;;;2.55;;
53261;SDS011;39658;51.090;-1.786;2023-08-20T07:12:08;12.50;;;2.63;;
53261;SDS011;39658;51.090;-1.786;2023-08-20T07:14:36;7.65;;;2.17;;
53261;SDS011;39658;51.090;-1.786;2023-08-20T07:17:03;11.68;;;2.83;;
53261;SDS011;39658;51.090;-1.786;2023-08-20T07:19:30;8.15;;;2.10;;
53261;SDS011;39658;51.090;-1.786;2023-08-20T07:21:57;7.55;;;2.40;;
53261;SDS011;39658;51.090;-1.786;2023-08-20T07:24:24;7.55;;;1.60;;
53261;SDS011;39658;51.090;-1.786;2023-08-20T07:26:51;11.15;;;2.42;;
53261;SDS011;39658;51.090;-1.786;2023-08-20T07:29:25;14.35;;;2.40;;
53261;SDS011;39658;51.090;-1.786;2023-08-20T07:31:55;5.18;;;1.88;;
53261;SDS011;39658;51.090;-1.786;2023-08-20T07:34:22;7.55;;;2.00;;
53261;SDS011;39658;51.090;-1.786;2023-08-20T07:36:49;8.60;;;2.05;;
53261;SDS011;39658;51.090;-1.786;2023-08-20T07:39:16;9.68;;;2.75;;
53261;SDS011;39658;51.090;-1.786;2023-08-20T07:41:42;11.77;;;3.13;;
53261;SDS011;39658;51.090;-1.786;2023-08-20T07:44:09;6.43;;;2.38;;
53261;SDS011;39658;51.090;-1.786;2023-08-20T07:46:37;10.10;;;1.77;;
53261;SDS011;39658;51.090;-1.786;2023-08-20T07:49:04;5.97;;;1.73;;
53261;SDS011;39658;51.090;-1.786;2023-08-20T07:51:31;11.32;;;1.95;;
53261;SDS011;39658;51.090;-1.786;2023-08-20T07:53:58;11.40;;;1.50;;
53261;SDS011;39658;51.090;-1.786;2023-08-20T07:56:25;10.82;;;1.90;;
53261;SDS011;39658;51.090;-1.786;2023-08-20T07:58:52;9.68;;;2.40;;
53261;SDS011;39658;51.090;-1.786;2023-08-20T08:01:19;6.25;;;2.25;;
53261;SDS011;39658;51.090;-1.786;2023-08-20T08:03:48;6.38;;;1.38;;
53261;SDS011;39658;51.090;-1.786;2023-08-20T08:06:15;3.65;;;1.30;;
53261;SDS011;39658;51.090;-1.786;2023-08-20T08:08:42;7.70;;;2.03;;
53261;SDS011;39658;51.090;-1.786;2023-08-20T08:11:10;10.35;;;2.22;;
53261;SDS011;39658;51.090;-1.786;2023-08-20T08:13:37;10.73;;;2.17;;
53261;SDS011;39658;51.090;-1.786;2023-08-20T08:16:04;8.40;;;1.50;;
53261;SDS011;39658;51.090;-1.786;2023-08-20T08:18:31;11.82;;;1.70;;
53261;SDS011;39658;51.090;-1.786;2023-08-20T08:20:59;7.07;;;1.65;;
53261;SDS011;39658;51.090;-1.786;2023-08-20T08:23:26;10.90;;;1.85;;
53261;SDS011;39658;51.090;-1.786;2023-08-20T08:25:53;11.07;;;2.80;;
53261;SDS011;39658;51.090;-1.786;2023-08-20T08:28:19;4.75;;;1.13;;
53261;SDS011;39658;51.090;-1.786;2023-08-20T08:30:46;7.15;;;1.45;;
53261;SDS011;39658;51.090;-1.786;2023-08-20T08:33:13;8.80;;;2.33;;
53261;SDS011;39658;51.090;-1.786;2023-08-20T08:35:40;7.43;;;2.20;;
53261;SDS011;39658;51.090;-1.786;2023-08-20T08:38:08;6.63;;;1.45;;
53261;SDS011;39658;51.090;-1.786;2023-08-20T08:40:35;9.07;;;1.80;;
53261;SDS011;39658;51.090;-1.786;2023-08-20T08:43:02;10.93;;;1.83;;
53261;SDS011;39658;51.090;-1.786;2023-08-20T08:45:29;5.95;;;2.00;;
53261;SDS011;39658;51.090;-1.786;2023-08-20T08:47:56;4.97;;;1.30;;
53261;SDS011;39658;51.090;-1.786;2023-08-20T08:50:23;5.10;;;1.38;;
53261;SDS011;39658;51.090;-1.786;2023-08-20T08:52:50;6.10;;;1.30;;
53261;SDS011;39658;51.090;-1.786;2023-08-20T08:55:19;5.63;;;1.30;;
53261;SDS011;39658;51.090;-1.786;2023-08-20T08:57:46;8.43;;;1.17;;
53261;SDS011;39658;51.090;-1.786;2023-08-20T09:00:13;6.43;;;1.98;;
53261;SDS011;39658;51.090;-1.786;2023-08-20T09:02:41;6.72;;;1.45;;
53261;SDS011;39658;51.090;-1.786;2023-08-20T09:05:08;5.60;;;1.30;;
53261;SDS011;39658;51.090;-1.786;2023-08-20T09:07:34;9.77;;;1.92;;
53261;SDS011;39658;51.090;-1.786;2023-08-20T09:10:02;5.75;;;1.00;;
53261;SDS011;39658;51.090;-1.786;2023-08-20T09:12:30;4.38;;;1.10;;
53261;SDS011;39658;51.090;-1.786;2023-08-20T09:15:09;6.97;;;1.48;;
53261;SDS011;39658;51.090;-1.786;2023-08-20T09:17:36;5.30;;;1.70;;
53261;SDS011;39658;51.090;-1.786;2023-08-20T09:20:04;7.32;;;1.10;;
53261;SDS011;39658;51.090;-1.786;2023-08-20T09:22:31;3.30;;;0.90;;
53261;SDS011;39658;51.090;-1.786;2023-08-20T09:24:58;4.35;;;1.00;;
53261;SDS011;39658;51.090;-1.786;2023-08-20T09:27:24;3.45;;;1.33;;
53261;SDS011;39658;51.090;-1.786;2023-08-20T09:29:53;2.95;;;0.80;;
53261;SDS011;39658;51.090;-1.786;2023-08-20T09:32:22;4.70;;;1.20;;
53261;SDS011;39658;51.090;-1.786;2023-08-20T09:34:51;6.75;;;1.42;;
53261;SDS011;39658;51.090;-1.786;2023-08-20T09:37:19;4.97;;;1.30;;
53261;SDS011;39658;51.090;-1.786;2023-08-20T09:39:46;2.28;;;0.70;;
53261;SDS011;39658;51.090;-1.786;2023-08-20T09:42:14;3.90;;;1.55;;
53261;SDS011;39658;51.090;-1.786;2023-08-20T09:44:41;5.13;;;1.17;;
53261;SDS011;39658;51.090;-1.786;2023-08-20T09:47:12;3.95;;;0.88;;
53261;SDS011;39658;51.090;-1.786;2023-08-20T09:49:40;2.47;;;0.90;;
53261;SDS011;39658;51.090;-1.786;2023-08-20T09:52:08;4.28;;;0.80;;
53261;SDS011;39658;51.090;-1.786;2023-08-20T09:54:50;4.40;;;0.80;;
53261;SDS011;39658;51.090;-1.786;2023-08-20T09:57:24;5.43;;;1.17;;
53261;SDS011;39658;51.090;-1.786;2023-08-20T09:59:57;6.93;;;0.95;;
53261;SDS011;39658;51.090;-1.786;2023-08-20T10:02:27;5.43;;;1.23;;
53261;SDS011;39658;51.090;-1.786;2023-08-20T10:04:55;4.90;;;1.38;;
53261;SDS011;39658;51.090;-1.786;2023-08-20T10:07:24;6.53;;;1.42;;
53261;SDS011;39658;51.090;-1.786;2023-08-20T10:09:56;6.03;;;1.63;;
53261;SDS011;39658;51.090;-1.786;2023-08-20T10:12:25;4.07;;;1.23;;
53261;SDS011;39658;51.090;-1.786;2023-08-20T10:14:53;3.72;;;1.17;;
53261;SDS011;39658;51.090;-1.786;2023-08-20T10:17:21;4.55;;;0.90;;
53261;SDS011;39658;51.090;-1.786;2023-08-20T10:19:50;3.63;;;1.00;;
53261;SDS011;39658;51.090;-1.786;2023-08-20T10:22:18;6.45;;;1.35;;
53261;SDS011;39658;51.090;-1.786;2023-08-20T10:24:49;4.22;;;1.13;;
53261;SDS011;39658;51.090;-1.786;2023-08-20T10:27:23;4.47;;;0.88;;
53261;SDS011;39658;51.090;-1.786;2023-08-20T10:29:52;6.20;;;1.15;;
53261;SDS011;39658;51.090;-1.786;2023-08-20T10:32:19;6.05;;;1.10;;
53261;SDS011;39658;51.090;-1.786;2023-08-20T10:34:51;3.38;;;0.80;;
53261;SDS011;39658;51.090;-1.786;2023-08-20T10:37:27;6.60;;;1.17;;
53261;SDS011;39658;51.090;-1.786;2023-08-20T10:39:54;5.18;;;1.17;;
53261;SDS011;39658;51.090;-1.786;2023-08-20T10:42:25;2.63;;;1.20;;
53261;SDS011;39658;51.090;-1.786;2023-08-20T10:44:59;4.55;;;1.30;;
53261;SDS011;39658;51.090;-1.786;2023-08-20T10:47:35;4.57;;;1.02;;
53261;SDS011;39658;51.090;-1.786;2023-08-20T10:50:04;3.60;;;0.82;;
53261;SDS011;39658;51.090;-1.786;2023-08-20T10:52:38;2.83;;;1.48;;
53261;SDS011;39658;51.090;-1.786;2023-08-20T10:55:06;4.45;;;1.02;;
53261;SDS011;39658;51.090;-1.786;2023-08-20T10:57:34;6.03;;;1.13;;
53261;SDS011;39658;51.090;-1.786;2023-08-20T11:00:02;4.30;;;0.93;;
53261;SDS011;39658;51.090;-1.786;2023-08-20T11:02:35;5.70;;;1.05;;
53261;SDS011;39658;51.090;-1.786;2023-08-20T11:05:02;4.82;;;1.13;;
53261;SDS011;39658;51.090;-1.786;2023-08-20T11:07:42;3.75;;;0.98;;
53261;SDS011;39658;51.090;-1.786;2023-08-20T11:10:12;6.40;;;1.25;;
53261;SDS011;39658;51.090;-1.786;2023-08-20T11:12:39;4.45;;;1.10;;
53261;SDS011;39658;51.090;-1.786;2023-08-20T11:15:07;3.35;;;1.63;;
53261;SDS011;39658;51.090;-1.786;2023-08-20T11:17:39;3.67;;;1.45;;
53261;SDS011;39658;51.090;-1.786;2023-08-20T11:20:08;2.63;;;0.82;;
53261;SDS011;39658;51.090;-1.786;2023-08-20T11:22:38;4.22;;;1.45;;
53261;SDS011;39658;51.090;-1.786;2023-08-20T11:25:05;3.25;;;1.42;;
53261;SDS011;39658;51.090;-1.786;2023-08-20T11:27:36;3.50;;;0.90;;
53261;SDS011;39658;51.090;-1.786;2023-08-20T11:30:07;4.63;;;0.90;;
53261;SDS011;39658;51.090;-1.786;2023-08-20T11:32:35;4.22;;;0.80;;
53261;SDS011;39658;51.090;-1.786;2023-08-20T11:35:02;3.72;;;1.65;;
53261;SDS011;39658;51.090;-1.786;2023-08-20T11:37:31;5.60;;;1.05;;
53261;SDS011;39658;51.090;-1.786;2023-08-20T11:39:58;4.38;;;1.15;;
53261;SDS011;39658;51.090;-1.786;2023-08-20T11:42:24;6.22;;;1.08;;
53261;SDS011;39658;51.090;-1.786;2023-08-20T11:44:54;5.22;;;1.17;;
53261;SDS011;39658;51.090;-1.786;2023-08-20T11:47:22;2.75;;;1.33;;
53261;SDS011;39658;51.090;-1.786;2023-08-20T11:49:56;4.38;;;1.00;;
53261;SDS011;39658;51.090;-1.786;2023-08-20T11:52:31;3.55;;;0.90;;
53261;SDS011;39658;51.090;-1.786;2023-08-20T11:54:58;4.95;;;1.00;;
53261;SDS011;39658;51.090;-1.786;2023-08-20T11:57:26;4.40;;;1.15;;
53261;SDS011;39658;51.090;-1.786;2023-08-20T11:59:55;3.40;;;0.90;;
53261;SDS011;39658;51.090;-1.786;2023-08-20T12:02:24;4.18;;;0.88;;
53261;SDS011;39658;51.090;-1.786;2023-08-20T12:04:51;4.93;;;0.82;;
53261;SDS011;39658;51.090;-1.786;2023-08-20T12:07:18;5.55;;;1.23;;
53261;SDS011;39658;51.090;-1.786;2023-08-20T12:09:46;4.53;;;0.80;;
53261;SDS011;39658;51.090;-1.786;2023-08-20T12:12:14;4.13;;;0.95;;
53261;SDS011;39658;51.090;-1.786;2023-08-20T12:14:41;1.90;;;0.77;;
53261;SDS011;39658;51.090;-1.786;2023-08-20T12:17:08;4.78;;;0.93;;
53261;SDS011;39658;51.090;-1.786;2023-08-20T12:19:35;5.05;;;1.40;;
53261;SDS011;39658;51.090;-1.786;2023-08-20T12:22:02;3.15;;;1.00;;
53261;SDS011;39658;51.090;-1.786;2023-08-20T12:24:29;2.70;;;0.80;;
53261;SDS011;39658;51.090;-1.786;2023-08-20T12:26:57;6.05;;;1.25;;
53261;SDS011;39658;51.090;-1.786;2023-08-20T12:29:24;2.30;;;0.77;;
53261;SDS011;39658;51.090;-1.786;2023-08-20T12:31:51;3.67;;;0.73;;
53261;SDS011;39658;51.090;-1.786;2023-08-20T12:34:19;2.47;;;1.05;;
53261;SDS011;39658;51.090;-1.786;2023-08-20T12:36:46;3.28;;;0.90;;
53261;SDS011;39658;51.090;-1.786;2023-08-20T12:39:13;1.98;;;0.80;;
53261;SDS011;39658;51.090;-1.786;2023-08-20T12:41:40;4.32;;;1.70;;
53261;SDS011;39658;51.090;-1.786;2023-08-20T12:44:09;3.20;;;1.42;;
53261;SDS011;39658;51.090;-1.786;2023-08-20T12:46:36;2.38;;;0.93;;
53261;SDS011;39658;51.090;-1.786;2023-08-20T12:49:03;4.72;;;1.75;;
53261;SDS011;39658;51.090;-1.786;2023-08-20T12:51:30;8.60;;;1.23;;
53261;SDS011;39658;51.090;-1.786;2023-08-20T12:53:57;3.72;;;1.10;;
53261;SDS011;39658;51.090;-1.786;2023-08-20T12:56:23;5.18;;;1.25;;
53261;SDS011;39658;51.090;-1.786;2023-08-20T12:58:50;2.38;;;0.90;;
53261;SDS011;39658;51.090;-1.786;2023-08-20T13:01:18;3.50;;;0.90;;
53261;SDS011;39658;51.090;-1.786;2023-08-20T13:03:45;2.55;;;0.90;;
53261;SDS011;39658;51.090;-1.786;2023-08-20T13:06:13;4.18;;;0.82;;
53261;SDS011;39658;51.090;-1.786;2023-08-20T13:08:41;6.38;;;1.50;;
53261;SDS011;39658;51.090;-1.786;2023-08-20T13:11:09;4.47;;;1.00;;
53261;SDS011;39658;51.090;-1.786;2023-08-20T13:13:43;4.70;;;1.20;;
53261;SDS011;39658;51.090;-1.786;2023-08-20T13:16:10;3.10;;;1.10;;
53261;SDS011;39658;51.090;-1.786;2023-08-20T13:18:39;2.80;;;1.05;;
53261;SDS011;39658;51.090;-1.786;2023-08-20T13:21:06;4.07;;;1.60;;
53261;SDS011;39658;51.090;-1.786;2023-08-20T13:23:33;4.15;;;1.33;;
53261;SDS011;39658;51.090;-1.786;2023-08-20T13:26:00;6.00;;;1.10;;
53261;SDS011;39658;51.090;-1.786;2023-08-20T13:28:27;3.75;;;1.70;;
53261;SDS011;39658;51.090;-1.786;2023-08-20T13:30:54;3.33;;;0.98;;
53261;SDS011;39658;51.090;-1.786;2023-08-20T13:33:21;3.00;;;0.70;;
53261;SDS011;39658;51.090;-1.786;2023-08-20T13:35:49;4.28;;;1.23;;
53261;SDS011;39658;51.090;-1.786;2023-08-20T13:38:17;3.58;;;0.80;;
53261;SDS011;39658;51.090;-1.786;2023-08-20T13:40:44;3.28;;;1.00;;
53261;SDS011;39658;51.090;-1.786;2023-08-20T13:43:11;3.30;;;1.48;;
53261;SDS011;39658;51.090;-1.786;2023-08-20T13:45:38;3.35;;;0.80;;
53261;SDS011;39658;51.090;-1.786;2023-08-20T13:48:05;3.47;;;0.88;;
53261;SDS011;39658;51.090;-1.786;2023-08-20T13:50:32;7.05;;;1.60;;
53261;SDS011;39658;51.090;-1.786;2023-08-20T13:53:01;6.47;;;1.20;;
53261;SDS011;39658;51.090;-1.786;2023-08-20T13:55:27;2.80;;;0.73;;
53261;SDS011;39658;51.090;-1.786;2023-08-20T13:57:56;4.28;;;1.40;;
53261;SDS011;39658;51.090;-1.786;2023-08-20T14:00:23;4.75;;;0.77;;
53261;SDS011;39658;51.090;-1.786;2023-08-20T14:02:50;4.18;;;0.73;;
53261;SDS011;39658;51.090;-1.786;2023-08-20T14:05:17;2.78;;;0.80;;
53261;SDS011;39658;51.090;-1.786;2023-08-20T14:07:44;5.13;;;1.15;;
53261;SDS011;39658;51.090;-1.786;2023-08-20T14:10:12;3.58;;;1.20;;
53261;SDS011;39658;51.090;-1.786;2023-08-20T14:12:39;2.63;;;0.80;;
53261;SDS011;39658;51.090;-1.786;2023-08-20T14:15:06;5.40;;;1.25;;
53261;SDS011;39658;51.090;-1.786;2023-08-20T14:17:35;8.85;;;1.58;;
53261;SDS011;39658;51.090;-1.786;2023-08-20T14:20:02;4.63;;;0.90;;
53261;SDS011;39658;51.090;-1.786;2023-08-20T14:22:30;4.32;;;1.60;;
53261;SDS011;39658;51.090;-1.786;2023-08-20T14:24:57;5.10;;;1.20;;
53261;SDS011;39658;51.090;-1.786;2023-08-20T14:27:25;3.38;;;0.77;;
53261;SDS011;39658;51.090;-1.786;2023-08-20T14:29:52;3.78;;;1.35;;
53261;SDS011;39658;51.090;-1.786;2023-08-20T14:32:19;1.80;;;0.60;;
53261;SDS011;39658;51.090;-1.786;2023-08-20T14:34:46;2.03;;;0.73;;
53261;SDS011;39658;51.090;-1.786;2023-08-20T14:37:13;4.15;;;1.00;;